sensor_id;sensor_type;location;lat;lon;timestamp;P1;durP1;ratioP1;P2;durP2;ratioP2
57057;SDS011;55017;52.848;6.748;2023-01-26T00:01:43;171.60;;;161.38;;
57057;SDS011;55017;52.848;6.748;2023-01-26T00:04:09;171.48;;;161.88;;
57057;SDS011;55017;52.848;6.748;2023-01-26T00:06:35;171.82;;;161.63;;
57057;SDS011;55017;52.848;6.748;2023-01-26T00:09:01;174.63;;;164.30;;
57057;SDS011;55017;52.848;6.748;2023-01-26T00:11:28;171.00;;;161.18;;
57057;SDS011;55017;52.848;6.748;2023-01-26T00:13:56;172.50;;;162.20;;
57057;SDS011;55017;52.848;6.748;2023-01-26T00:16:22;173.23;;;163.25;;
57057;SDS011;55017;52.848;6.748;2023-01-26T00:18:48;172.32;;;162.50;;
57057;SDS011;55017;52.848;6.748;2023-01-26T00:21:18;177.30;;;166.80;;
57057;SDS011;55017;52.848;6.748;2023-01-26T00:23:45;175.88;;;165.50;;
57057;SDS011;55017;52.848;6.748;2023-01-26T00:26:15;174.25;;;163.68;;
57057;SDS011;55017;52.848;6.748;2023-01-26T00:28:41;172.27;;;161.70;;
57057;SDS011;55017;52.848;6.748;2023-01-26T00:31:09;173.18;;;162.90;;
57057;SDS011;55017;52.848;6.748;2023-01-26T00:33:36;172.20;;;162.15;;
57057;SDS011;55017;52.848;6.748;2023-01-26T00:36:02;173.10;;;162.90;;
57057;SDS011;55017;52.848;6.748;2023-01-26T00:38:29;175.52;;;164.90;;
57057;SDS011;55017;52.848;6.748;2023-01-26T00:40:55;176.02;;;165.00;;
57057;SDS011;55017;52.848;6.748;2023-01-26T00:43:20;173.15;;;163.32;;
57057;SDS011;55017;52.848;6.748;2023-01-26T00:45:46;173.88;;;163.88;;
57057;SDS011;55017;52.848;6.748;2023-01-26T00:48:13;176.20;;;165.88;;
57057;SDS011;55017;52.848;6.748;2023-01-26T00:50:39;176.45;;;165.80;;
57057;SDS011;55017;52.848;6.748;2023-01-26T00:53:05;171.18;;;160.82;;
57057;SDS011;55017;52.848;6.748;2023-01-26T00:55:31;173.65;;;163.25;;
57057;SDS011;55017;52.848;6.748;2023-01-26T00:58:00;171.70;;;161.40;;
57057;SDS011;55017;52.848;6.748;2023-01-26T01:00:26;173.85;;;163.77;;
57057;SDS011;55017;52.848;6.748;2023-01-26T01:02:53;176.95;;;166.30;;
57057;SDS011;55017;52.848;6.748;2023-01-26T01:05:21;169.73;;;160.27;;
57057;SDS011;55017;52.848;6.748;2023-01-26T01:07:47;172.18;;;162.45;;
57057;SDS011;55017;52.848;6.748;2023-01-26T01:10:13;172.15;;;161.98;;
57057;SDS011;55017;52.848;6.748;2023-01-26T01:12:39;174.13;;;163.82;;
57057;SDS011;55017;52.848;6.748;2023-01-26T01:15:05;174.05;;;164.07;;
57057;SDS011;55017;52.848;6.748;2023-01-26T01:17:31;171.57;;;161.98;;
57057;SDS011;55017;52.848;6.748;2023-01-26T01:19:57;172.65;;;161.98;;
57057;SDS011;55017;52.848;6.748;2023-01-26T01:22:24;171.18;;;161.38;;
57057;SDS011;55017;52.848;6.748;2023-01-26T01:24:49;173.02;;;163.25;;
57057;SDS011;55017;52.848;6.748;2023-01-26T01:27:16;171.40;;;161.60;;
57057;SDS011;55017;52.848;6.748;2023-01-26T01:29:42;172.00;;;162.13;;
57057;SDS011;55017;52.848;6.748;2023-01-26T01:32:08;171.20;;;161.60;;
57057;SDS011;55017;52.848;6.748;2023-01-26T01:34:34;173.45;;;163.57;;
57057;SDS011;55017;52.848;6.748;2023-01-26T01:37:00;175.27;;;164.60;;
57057;SDS011;55017;52.848;6.748;2023-01-26T01:39:26;173.95;;;163.95;;
57057;SDS011;55017;52.848;6.748;2023-01-26T01:41:52;174.00;;;163.93;;
57057;SDS011;55017;52.848;6.748;2023-01-26T01:44:19;171.77;;;161.95;;
57057;SDS011;55017;52.848;6.748;2023-01-26T01:46:52;166.88;;;157.73;;
57057;SDS011;55017;52.848;6.748;2023-01-26T01:49:30;168.10;;;158.63;;
57057;SDS011;55017;52.848;6.748;2023-01-26T01:52:01;167.60;;;158.48;;
57057;SDS011;55017;52.848;6.748;2023-01-26T01:54:31;167.90;;;158.90;;
57057;SDS011;55017;52.848;6.748;2023-01-26T01:56:59;172.05;;;162.27;;
57057;SDS011;55017;52.848;6.748;2023-01-26T01:59:27;170.85;;;161.27;;
57057;SDS011;55017;52.848;6.748;2023-01-26T02:01:54;169.55;;;159.93;;
57057;SDS011;55017;52.848;6.748;2023-01-26T02:04:20;171.52;;;162.23;;
57057;SDS011;55017;52.848;6.748;2023-01-26T02:06:48;167.65;;;158.90;;
57057;SDS011;55017;52.848;6.748;2023-01-26T02:09:15;171.23;;;161.80;;
57057;SDS011;55017;52.848;6.748;2023-01-26T02:12:01;169.35;;;160.02;;
57057;SDS011;55017;52.848;6.748;2023-01-26T02:14:28;169.25;;;160.05;;
57057;SDS011;55017;52.848;6.748;2023-01-26T02:16:54;171.55;;;162.38;;
57057;SDS011;55017;52.848;6.748;2023-01-26T02:21:55;169.95;;;160.25;;
57057;SDS011;55017;52.848;6.748;2023-01-26T02:24:24;169.18;;;160.05;;
57057;SDS011;55017;52.848;6.748;2023-01-26T02:26:52;169.88;;;160.52;;
57057;SDS011;55017;52.848;6.748;2023-01-26T02:29:18;171.32;;;161.63;;
57057;SDS011;55017;52.848;6.748;2023-01-26T02:31:45;170.63;;;161.23;;
57057;SDS011;55017;52.848;6.748;2023-01-26T02:34:11;170.45;;;160.85;;
57057;SDS011;55017;52.848;6.748;2023-01-26T02:36:37;164.80;;;156.10;;
57057;SDS011;55017;52.848;6.748;2023-01-26T02:41:32;163.80;;;155.15;;
57057;SDS011;55017;52.848;6.748;2023-01-26T02:44:17;169.82;;;160.07;;
57057;SDS011;55017;52.848;6.748;2023-01-26T02:46:43;167.57;;;158.52;;
57057;SDS011;55017;52.848;6.748;2023-01-26T02:49:09;168.23;;;158.90;;
57057;SDS011;55017;52.848;6.748;2023-01-26T02:51:54;167.68;;;158.57;;
57057;SDS011;55017;52.848;6.748;2023-01-26T02:54:20;167.10;;;158.13;;
57057;SDS011;55017;52.848;6.748;2023-01-26T02:57:05;166.00;;;157.07;;
57057;SDS011;55017;52.848;6.748;2023-01-26T02:59:31;167.05;;;158.15;;
57057;SDS011;55017;52.848;6.748;2023-01-26T03:01:57;168.52;;;159.45;;
57057;SDS011;55017;52.848;6.748;2023-01-26T03:04:23;169.20;;;160.48;;
57057;SDS011;55017;52.848;6.748;2023-01-26T03:06:49;165.18;;;156.35;;
57057;SDS011;55017;52.848;6.748;2023-01-26T03:09:15;168.30;;;159.13;;
57057;SDS011;55017;52.848;6.748;2023-01-26T03:11:41;166.43;;;158.23;;
57057;SDS011;55017;52.848;6.748;2023-01-26T03:14:11;169.48;;;160.55;;
57057;SDS011;55017;52.848;6.748;2023-01-26T03:16:38;166.88;;;158.10;;
57057;SDS011;55017;52.848;6.748;2023-01-26T03:19:04;167.60;;;158.52;;
57057;SDS011;55017;52.848;6.748;2023-01-26T03:21:49;166.88;;;157.85;;
57057;SDS011;55017;52.848;6.748;2023-01-26T03:24:33;167.88;;;159.38;;
57057;SDS011;55017;52.848;6.748;2023-01-26T03:27:18;163.23;;;154.75;;
57057;SDS011;55017;52.848;6.748;2023-01-26T03:29:50;166.40;;;157.98;;
57057;SDS011;55017;52.848;6.748;2023-01-26T03:32:16;163.43;;;155.45;;
57057;SDS011;55017;52.848;6.748;2023-01-26T03:34:42;164.43;;;156.43;;
57057;SDS011;55017;52.848;6.748;2023-01-26T03:37:08;163.55;;;155.70;;
57057;SDS011;55017;52.848;6.748;2023-01-26T03:39:34;165.38;;;156.75;;
57057;SDS011;55017;52.848;6.748;2023-01-26T03:42:20;163.07;;;155.07;;
57057;SDS011;55017;52.848;6.748;2023-01-26T03:45:05;165.18;;;157.07;;
57057;SDS011;55017;52.848;6.748;2023-01-26T03:47:50;166.35;;;158.15;;
57057;SDS011;55017;52.848;6.748;2023-01-26T03:50:34;161.65;;;154.00;;
57057;SDS011;55017;52.848;6.748;2023-01-26T03:53:23;163.07;;;155.27;;
57057;SDS011;55017;52.848;6.748;2023-01-26T03:56:09;166.00;;;158.02;;
57057;SDS011;55017;52.848;6.748;2023-01-26T03:58:52;163.75;;;156.40;;
57057;SDS011;55017;52.848;6.748;2023-01-26T04:01:19;163.50;;;155.70;;
57057;SDS011;55017;52.848;6.748;2023-01-26T04:03:51;162.82;;;155.23;;
57057;SDS011;55017;52.848;6.748;2023-01-26T04:06:36;163.23;;;155.52;;
57057;SDS011;55017;52.848;6.748;2023-01-26T04:09:21;159.95;;;152.30;;
57057;SDS011;55017;52.848;6.748;2023-01-26T04:11:47;163.45;;;155.60;;
57057;SDS011;55017;52.848;6.748;2023-01-26T04:14:14;160.38;;;153.15;;
57057;SDS011;55017;52.848;6.748;2023-01-26T04:16:59;159.30;;;151.77;;
57057;SDS011;55017;52.848;6.748;2023-01-26T04:19:44;158.82;;;151.45;;
57057;SDS011;55017;52.848;6.748;2023-01-26T04:22:30;159.68;;;151.82;;
57057;SDS011;55017;52.848;6.748;2023-01-26T04:24:56;161.68;;;154.38;;
57057;SDS011;55017;52.848;6.748;2023-01-26T04:27:22;163.20;;;156.10;;
57057;SDS011;55017;52.848;6.748;2023-01-26T04:29:48;160.05;;;153.23;;
57057;SDS011;55017;52.848;6.748;2023-01-26T04:32:14;159.77;;;152.27;;
57057;SDS011;55017;52.848;6.748;2023-01-26T04:34:40;158.00;;;150.63;;
57057;SDS011;55017;52.848;6.748;2023-01-26T04:37:07;160.43;;;152.68;;
57057;SDS011;55017;52.848;6.748;2023-01-26T04:39:33;161.00;;;153.50;;
57057;SDS011;55017;52.848;6.748;2023-01-26T04:41:59;162.52;;;154.48;;
57057;SDS011;55017;52.848;6.748;2023-01-26T04:44:25;162.55;;;155.20;;
57057;SDS011;55017;52.848;6.748;2023-01-26T04:46:51;161.90;;;154.20;;
57057;SDS011;55017;52.848;6.748;2023-01-26T04:49:17;160.43;;;153.27;;
57057;SDS011;55017;52.848;6.748;2023-01-26T04:51:43;158.65;;;151.73;;
57057;SDS011;55017;52.848;6.748;2023-01-26T04:54:09;159.15;;;152.02;;
57057;SDS011;55017;52.848;6.748;2023-01-26T04:56:35;160.13;;;152.80;;
57057;SDS011;55017;52.848;6.748;2023-01-26T04:59:02;159.65;;;152.63;;
57057;SDS011;55017;52.848;6.748;2023-01-26T05:01:29;160.88;;;152.98;;
57057;SDS011;55017;52.848;6.748;2023-01-26T05:03:55;159.77;;;152.48;;
57057;SDS011;55017;52.848;6.748;2023-01-26T05:06:23;154.35;;;147.60;;
57057;SDS011;55017;52.848;6.748;2023-01-26T05:08:49;158.43;;;151.63;;
57057;SDS011;55017;52.848;6.748;2023-01-26T05:11:15;158.77;;;151.40;;
57057;SDS011;55017;52.848;6.748;2023-01-26T05:13:41;160.60;;;153.20;;
57057;SDS011;55017;52.848;6.748;2023-01-26T05:16:07;156.40;;;149.95;;
57057;SDS011;55017;52.848;6.748;2023-01-26T05:18:33;155.05;;;148.65;;
57057;SDS011;55017;52.848;6.748;2023-01-26T05:20:59;156.40;;;149.73;;
57057;SDS011;55017;52.848;6.748;2023-01-26T05:23:25;159.43;;;152.60;;
57057;SDS011;55017;52.848;6.748;2023-01-26T05:25:51;155.70;;;148.95;;
57057;SDS011;55017;52.848;6.748;2023-01-26T05:28:17;154.10;;;147.13;;
57057;SDS011;55017;52.848;6.748;2023-01-26T05:30:43;155.65;;;149.00;;
57057;SDS011;55017;52.848;6.748;2023-01-26T05:33:09;155.57;;;148.73;;
57057;SDS011;55017;52.848;6.748;2023-01-26T05:35:35;162.40;;;155.20;;
57057;SDS011;55017;52.848;6.748;2023-01-26T05:38:02;159.80;;;153.18;;
57057;SDS011;55017;52.848;6.748;2023-01-26T05:40:28;157.98;;;150.93;;
57057;SDS011;55017;52.848;6.748;2023-01-26T05:42:54;158.32;;;151.50;;
57057;SDS011;55017;52.848;6.748;2023-01-26T05:45:20;158.15;;;151.27;;
57057;SDS011;55017;52.848;6.748;2023-01-26T05:47:46;156.70;;;150.00;;
57057;SDS011;55017;52.848;6.748;2023-01-26T05:50:13;159.25;;;152.43;;
57057;SDS011;55017;52.848;6.748;2023-01-26T05:52:40;161.50;;;154.23;;
57057;SDS011;55017;52.848;6.748;2023-01-26T05:55:06;162.15;;;154.85;;
57057;SDS011;55017;52.848;6.748;2023-01-26T05:57:32;153.63;;;146.80;;
57057;SDS011;55017;52.848;6.748;2023-01-26T05:59:58;155.45;;;148.38;;
57057;SDS011;55017;52.848;6.748;2023-01-26T06:02:24;155.73;;;148.63;;
57057;SDS011;55017;52.848;6.748;2023-01-26T06:04:53;157.55;;;150.73;;
57057;SDS011;55017;52.848;6.748;2023-01-26T06:07:19;155.57;;;148.85;;
57057;SDS011;55017;52.848;6.748;2023-01-26T06:09:45;155.10;;;148.40;;
57057;SDS011;55017;52.848;6.748;2023-01-26T06:12:13;157.35;;;150.38;;
57057;SDS011;55017;52.848;6.748;2023-01-26T06:14:39;158.77;;;151.52;;
57057;SDS011;55017;52.848;6.748;2023-01-26T06:17:05;160.00;;;152.48;;
57057;SDS011;55017;52.848;6.748;2023-01-26T06:19:31;158.02;;;150.82;;
57057;SDS011;55017;52.848;6.748;2023-01-26T06:21:57;156.60;;;149.43;;
57057;SDS011;55017;52.848;6.748;2023-01-26T06:24:23;155.40;;;148.65;;
57057;SDS011;55017;52.848;6.748;2023-01-26T06:26:49;158.43;;;150.57;;
57057;SDS011;55017;52.848;6.748;2023-01-26T06:29:15;161.45;;;153.82;;
57057;SDS011;55017;52.848;6.748;2023-01-26T06:31:41;158.95;;;151.45;;
57057;SDS011;55017;52.848;6.748;2023-01-26T06:34:07;161.57;;;154.18;;
57057;SDS011;55017;52.848;6.748;2023-01-26T06:36:34;158.73;;;151.40;;
57057;SDS011;55017;52.848;6.748;2023-01-26T06:39:00;156.93;;;149.95;;
57057;SDS011;55017;52.848;6.748;2023-01-26T06:41:26;159.57;;;151.80;;
57057;SDS011;55017;52.848;6.748;2023-01-26T06:43:52;158.48;;;150.20;;
57057;SDS011;55017;52.848;6.748;2023-01-26T06:46:18;155.52;;;148.18;;
57057;SDS011;55017;52.848;6.748;2023-01-26T06:48:44;159.77;;;151.68;;
57057;SDS011;55017;52.848;6.748;2023-01-26T06:53:46;158.75;;;150.40;;
57057;SDS011;55017;52.848;6.748;2023-01-26T06:56:13;160.13;;;152.20;;
57057;SDS011;55017;52.848;6.748;2023-01-26T06:58:39;156.57;;;149.05;;
57057;SDS011;55017;52.848;6.748;2023-01-26T07:01:05;157.15;;;149.10;;
57057;SDS011;55017;52.848;6.748;2023-01-26T07:03:31;157.23;;;149.75;;
57057;SDS011;55017;52.848;6.748;2023-01-26T07:05:57;155.57;;;148.45;;
57057;SDS011;55017;52.848;6.748;2023-01-26T07:08:23;159.75;;;151.60;;
57057;SDS011;55017;52.848;6.748;2023-01-26T07:10:49;154.98;;;147.98;;
57057;SDS011;55017;52.848;6.748;2023-01-26T07:13:15;157.57;;;150.02;;
57057;SDS011;55017;52.848;6.748;2023-01-26T07:15:41;159.52;;;151.00;;
57057;SDS011;55017;52.848;6.748;2023-01-26T07:18:07;158.75;;;151.32;;
57057;SDS011;55017;52.848;6.748;2023-01-26T07:20:33;153.30;;;145.38;;
57057;SDS011;55017;52.848;6.748;2023-01-26T07:22:59;157.77;;;149.98;;
57057;SDS011;55017;52.848;6.748;2023-01-26T07:25:25;156.85;;;148.80;;
57057;SDS011;55017;52.848;6.748;2023-01-26T07:27:58;161.50;;;151.82;;
57057;SDS011;55017;52.848;6.748;2023-01-26T07:30:24;159.52;;;150.13;;
57057;SDS011;55017;52.848;6.748;2023-01-26T07:32:50;160.07;;;151.82;;
57057;SDS011;55017;52.848;6.748;2023-01-26T07:35:16;159.75;;;149.57;;
57057;SDS011;55017;52.848;6.748;2023-01-26T07:37:42;160.32;;;150.85;;
57057;SDS011;55017;52.848;6.748;2023-01-26T07:40:08;160.70;;;152.02;;
57057;SDS011;55017;52.848;6.748;2023-01-26T07:42:35;157.90;;;149.15;;
57057;SDS011;55017;52.848;6.748;2023-01-26T07:45:01;159.00;;;149.77;;
57057;SDS011;55017;52.848;6.748;2023-01-26T07:47:27;159.05;;;150.23;;
57057;SDS011;55017;52.848;6.748;2023-01-26T07:49:52;159.70;;;150.70;;
57057;SDS011;55017;52.848;6.748;2023-01-26T07:52:18;159.57;;;151.60;;
57057;SDS011;55017;52.848;6.748;2023-01-26T07:54:44;161.00;;;151.32;;
57057;SDS011;55017;52.848;6.748;2023-01-26T07:57:11;157.07;;;148.40;;
57057;SDS011;55017;52.848;6.748;2023-01-26T07:59:37;160.93;;;152.68;;
57057;SDS011;55017;52.848;6.748;2023-01-26T08:02:03;158.98;;;150.85;;
57057;SDS011;55017;52.848;6.748;2023-01-26T08:04:29;166.18;;;155.38;;
57057;SDS011;55017;52.848;6.748;2023-01-26T08:06:55;158.00;;;149.18;;
57057;SDS011;55017;52.848;6.748;2023-01-26T08:09:21;158.10;;;149.48;;
57057;SDS011;55017;52.848;6.748;2023-01-26T08:11:47;158.30;;;149.82;;
57057;SDS011;55017;52.848;6.748;2023-01-26T08:14:13;160.25;;;151.60;;
57057;SDS011;55017;52.848;6.748;2023-01-26T08:16:39;164.20;;;155.02;;
57057;SDS011;55017;52.848;6.748;2023-01-26T08:19:05;162.23;;;152.18;;
57057;SDS011;55017;52.848;6.748;2023-01-26T08:21:31;158.10;;;149.63;;
57057;SDS011;55017;52.848;6.748;2023-01-26T08:23:57;157.90;;;150.05;;
57057;SDS011;55017;52.848;6.748;2023-01-26T08:26:26;155.00;;;146.65;;
57057;SDS011;55017;52.848;6.748;2023-01-26T08:28:52;160.60;;;151.88;;
57057;SDS011;55017;52.848;6.748;2023-01-26T08:31:19;158.23;;;150.25;;
57057;SDS011;55017;52.848;6.748;2023-01-26T08:33:46;158.27;;;150.35;;
57057;SDS011;55017;52.848;6.748;2023-01-26T08:36:14;163.73;;;154.52;;
57057;SDS011;55017;52.848;6.748;2023-01-26T08:38:40;161.63;;;153.10;;
57057;SDS011;55017;52.848;6.748;2023-01-26T08:41:06;162.07;;;153.50;;
57057;SDS011;55017;52.848;6.748;2023-01-26T08:43:33;160.30;;;150.95;;
57057;SDS011;55017;52.848;6.748;2023-01-26T08:45:59;160.55;;;151.75;;
57057;SDS011;55017;52.848;6.748;2023-01-26T08:48:25;160.27;;;150.13;;
57057;SDS011;55017;52.848;6.748;2023-01-26T08:50:55;156.90;;;148.15;;
57057;SDS011;55017;52.848;6.748;2023-01-26T08:53:22;163.80;;;152.40;;
57057;SDS011;55017;52.848;6.748;2023-01-26T08:55:48;156.77;;;148.02;;
57057;SDS011;55017;52.848;6.748;2023-01-26T08:58:14;160.70;;;148.48;;
57057;SDS011;55017;52.848;6.748;2023-01-26T09:00:40;156.02;;;146.50;;
57057;SDS011;55017;52.848;6.748;2023-01-26T09:03:06;156.43;;;146.80;;
57057;SDS011;55017;52.848;6.748;2023-01-26T09:05:33;160.90;;;149.57;;
57057;SDS011;55017;52.848;6.748;2023-01-26T09:07:59;156.85;;;148.30;;
57057;SDS011;55017;52.848;6.748;2023-01-26T09:10:26;154.52;;;147.43;;
57057;SDS011;55017;52.848;6.748;2023-01-26T09:12:52;151.07;;;144.57;;
57057;SDS011;55017;52.848;6.748;2023-01-26T09:15:18;154.15;;;147.52;;
57057;SDS011;55017;52.848;6.748;2023-01-26T09:17:46;155.50;;;148.90;;
57057;SDS011;55017;52.848;6.748;2023-01-26T09:20:12;149.35;;;143.30;;
57057;SDS011;55017;52.848;6.748;2023-01-26T09:22:38;152.30;;;146.23;;
57057;SDS011;55017;52.848;6.748;2023-01-26T09:25:05;147.85;;;141.75;;
57057;SDS011;55017;52.848;6.748;2023-01-26T09:27:31;149.32;;;143.13;;
57057;SDS011;55017;52.848;6.748;2023-01-26T09:29:57;145.80;;;139.90;;
57057;SDS011;55017;52.848;6.748;2023-01-26T09:32:23;145.38;;;139.63;;
57057;SDS011;55017;52.848;6.748;2023-01-26T09:34:49;145.48;;;139.40;;
57057;SDS011;55017;52.848;6.748;2023-01-26T09:37:15;140.57;;;134.98;;
57057;SDS011;55017;52.848;6.748;2023-01-26T09:39:41;143.35;;;138.00;;
57057;SDS011;55017;52.848;6.748;2023-01-26T09:49:49;138.38;;;133.13;;
57057;SDS011;55017;52.848;6.748;2023-01-26T09:54:52;139.93;;;134.43;;
57057;SDS011;55017;52.848;6.748;2023-01-26T10:00:02;142.73;;;136.60;;
57057;SDS011;55017;52.848;6.748;2023-01-26T10:08:09;130.55;;;125.57;;
57057;SDS011;55017;52.848;6.748;2023-01-26T10:10:37;127.47;;;122.22;;
57057;SDS011;55017;52.848;6.748;2023-01-26T10:13:04;128.70;;;123.50;;
57057;SDS011;55017;52.848;6.748;2023-01-26T10:15:32;128.20;;;122.90;;
57057;SDS011;55017;52.848;6.748;2023-01-26T10:18:03;124.50;;;119.57;;
57057;SDS011;55017;52.848;6.748;2023-01-26T10:20:31;131.18;;;126.18;;
57057;SDS011;55017;52.848;6.748;2023-01-26T10:23:03;129.70;;;124.67;;
57057;SDS011;55017;52.848;6.748;2023-01-26T10:25:35;130.30;;;125.07;;
57057;SDS011;55017;52.848;6.748;2023-01-26T10:28:08;128.35;;;123.10;;
57057;SDS011;55017;52.848;6.748;2023-01-26T10:30:37;130.85;;;125.53;;
57057;SDS011;55017;52.848;6.748;2023-01-26T10:33:04;130.57;;;124.85;;
57057;SDS011;55017;52.848;6.748;2023-01-26T10:35:37;133.15;;;127.60;;
57057;SDS011;55017;52.848;6.748;2023-01-26T10:38:03;131.10;;;125.80;;
57057;SDS011;55017;52.848;6.748;2023-01-26T10:40:49;134.38;;;128.85;;
57057;SDS011;55017;52.848;6.748;2023-01-26T10:43:16;137.70;;;131.63;;
57057;SDS011;55017;52.848;6.748;2023-01-26T10:45:43;134.05;;;128.00;;
57057;SDS011;55017;52.848;6.748;2023-01-26T10:48:17;138.45;;;132.07;;
57057;SDS011;55017;52.848;6.748;2023-01-26T10:50:44;131.88;;;126.45;;
57057;SDS011;55017;52.848;6.748;2023-01-26T10:53:14;134.63;;;128.48;;
57057;SDS011;55017;52.848;6.748;2023-01-26T10:55:41;134.27;;;128.48;;
57057;SDS011;55017;52.848;6.748;2023-01-26T10:58:33;134.02;;;128.07;;
57057;SDS011;55017;52.848;6.748;2023-01-26T11:00:59;136.35;;;130.00;;
57057;SDS011;55017;52.848;6.748;2023-01-26T11:03:25;136.73;;;130.90;;
57057;SDS011;55017;52.848;6.748;2023-01-26T11:06:04;138.02;;;131.85;;
57057;SDS011;55017;52.848;6.748;2023-01-26T11:08:32;133.23;;;127.22;;
57057;SDS011;55017;52.848;6.748;2023-01-26T11:10:58;133.68;;;127.85;;
57057;SDS011;55017;52.848;6.748;2023-01-26T11:13:24;135.10;;;129.23;;
57057;SDS011;55017;52.848;6.748;2023-01-26T11:18:28;134.98;;;129.15;;
57057;SDS011;55017;52.848;6.748;2023-01-26T11:21:14;133.98;;;128.57;;
57057;SDS011;55017;52.848;6.748;2023-01-26T11:23:45;136.93;;;131.00;;
57057;SDS011;55017;52.848;6.748;2023-01-26T11:36:10;134.98;;;128.95;;
57057;SDS011;55017;52.848;6.748;2023-01-26T11:54:07;127.75;;;122.57;;
57057;SDS011;55017;52.848;6.748;2023-01-26T11:59:11;118.00;;;112.85;;
57057;SDS011;55017;52.848;6.748;2023-01-26T12:01:47;119.78;;;114.72;;
57057;SDS011;55017;52.848;6.748;2023-01-26T12:04:19;120.10;;;114.93;;
57057;SDS011;55017;52.848;6.748;2023-01-26T12:07:10;117.40;;;112.30;;
57057;SDS011;55017;52.848;6.748;2023-01-26T12:09:47;115.38;;;110.72;;
57057;SDS011;55017;52.848;6.748;2023-01-26T12:12:18;114.75;;;110.22;;
57057;SDS011;55017;52.848;6.748;2023-01-26T12:19:51;116.30;;;111.55;;
57057;SDS011;55017;52.848;6.748;2023-01-26T12:22:24;113.45;;;108.80;;
57057;SDS011;55017;52.848;6.748;2023-01-26T12:27:41;118.22;;;113.30;;
57057;SDS011;55017;52.848;6.748;2023-01-26T12:32:35;118.88;;;114.07;;
57057;SDS011;55017;52.848;6.748;2023-01-26T12:35:01;122.78;;;117.57;;
57057;SDS011;55017;52.848;6.748;2023-01-26T12:37:34;124.45;;;119.22;;
57057;SDS011;55017;52.848;6.748;2023-01-26T12:40:17;122.43;;;117.72;;
57057;SDS011;55017;52.848;6.748;2023-01-26T12:45:12;126.65;;;121.18;;
57057;SDS011;55017;52.848;6.748;2023-01-26T12:57:49;129.23;;;124.28;;
57057;SDS011;55017;52.848;6.748;2023-01-26T13:00:20;125.85;;;121.07;;
57057;SDS011;55017;52.848;6.748;2023-01-26T13:02:48;129.98;;;124.88;;
57057;SDS011;55017;52.848;6.748;2023-01-26T13:05:22;130.20;;;125.28;;
57057;SDS011;55017;52.848;6.748;2023-01-26T13:07:48;133.20;;;128.02;;
57057;SDS011;55017;52.848;6.748;2023-01-26T13:12:52;128.25;;;123.05;;
57057;SDS011;55017;52.848;6.748;2023-01-26T13:15:20;131.55;;;126.35;;
57057;SDS011;55017;52.848;6.748;2023-01-26T13:20:26;129.75;;;124.70;;
57057;SDS011;55017;52.848;6.748;2023-01-26T13:22:53;127.65;;;122.82;;
57057;SDS011;55017;52.848;6.748;2023-01-26T13:25:29;130.32;;;125.38;;
57057;SDS011;55017;52.848;6.748;2023-01-26T13:28:08;130.77;;;125.93;;
57057;SDS011;55017;52.848;6.748;2023-01-26T13:30:44;131.60;;;126.93;;
57057;SDS011;55017;52.848;6.748;2023-01-26T13:35:39;134.02;;;129.13;;
57057;SDS011;55017;52.848;6.748;2023-01-26T13:38:09;128.50;;;123.70;;
57057;SDS011;55017;52.848;6.748;2023-01-26T13:40:37;131.07;;;126.43;;
57057;SDS011;55017;52.848;6.748;2023-01-26T13:43:20;128.05;;;123.05;;
57057;SDS011;55017;52.848;6.748;2023-01-26T13:45:58;130.35;;;125.00;;
57057;SDS011;55017;52.848;6.748;2023-01-26T13:51:05;132.05;;;127.22;;
57057;SDS011;55017;52.848;6.748;2023-01-26T13:53:36;130.88;;;125.50;;
57057;SDS011;55017;52.848;6.748;2023-01-26T13:56:05;129.95;;;124.75;;
57057;SDS011;55017;52.848;6.748;2023-01-26T13:58:32;132.73;;;127.70;;
57057;SDS011;55017;52.848;6.748;2023-01-26T14:00:59;128.65;;;123.82;;
57057;SDS011;55017;52.848;6.748;2023-01-26T14:03:26;130.05;;;125.32;;
57057;SDS011;55017;52.848;6.748;2023-01-26T14:06:02;133.27;;;127.93;;
57057;SDS011;55017;52.848;6.748;2023-01-26T14:08:30;134.80;;;130.05;;
57057;SDS011;55017;52.848;6.748;2023-01-26T14:10:57;129.70;;;124.75;;
57057;SDS011;55017;52.848;6.748;2023-01-26T14:13:29;127.35;;;122.53;;
57057;SDS011;55017;52.848;6.748;2023-01-26T14:15:57;128.02;;;123.22;;
57057;SDS011;55017;52.848;6.748;2023-01-26T14:18:24;127.47;;;122.57;;
57057;SDS011;55017;52.848;6.748;2023-01-26T14:20:56;130.23;;;125.25;;
57057;SDS011;55017;52.848;6.748;2023-01-26T14:23:25;131.55;;;126.75;;
57057;SDS011;55017;52.848;6.748;2023-01-26T14:26:00;129.32;;;124.82;;
57057;SDS011;55017;52.848;6.748;2023-01-26T14:28:27;127.82;;;123.20;;
57057;SDS011;55017;52.848;6.748;2023-01-26T14:30:56;127.82;;;123.10;;
57057;SDS011;55017;52.848;6.748;2023-01-26T14:33:24;128.57;;;123.88;;
57057;SDS011;55017;52.848;6.748;2023-01-26T14:35:59;131.85;;;127.25;;
57057;SDS011;55017;52.848;6.748;2023-01-26T14:38:26;130.15;;;125.57;;
57057;SDS011;55017;52.848;6.748;2023-01-26T14:40:56;133.65;;;128.65;;
57057;SDS011;55017;52.848;6.748;2023-01-26T14:43:23;130.60;;;125.90;;
57057;SDS011;55017;52.848;6.748;2023-01-26T14:48:18;129.05;;;124.45;;
57057;SDS011;55017;52.848;6.748;2023-01-26T14:50:44;132.07;;;127.45;;
57057;SDS011;55017;52.848;6.748;2023-01-26T14:53:15;129.70;;;124.90;;
57057;SDS011;55017;52.848;6.748;2023-01-26T14:55:42;131.48;;;126.63;;
57057;SDS011;55017;52.848;6.748;2023-01-26T14:58:13;133.38;;;128.60;;
57057;SDS011;55017;52.848;6.748;2023-01-26T15:00:40;130.50;;;125.85;;
57057;SDS011;55017;52.848;6.748;2023-01-26T15:03:11;130.98;;;126.05;;
57057;SDS011;55017;52.848;6.748;2023-01-26T15:05:38;129.57;;;124.63;;
57057;SDS011;55017;52.848;6.748;2023-01-26T15:13:23;129.45;;;124.70;;
57057;SDS011;55017;52.848;6.748;2023-01-26T15:16:00;131.52;;;126.13;;
57057;SDS011;55017;52.848;6.748;2023-01-26T15:18:31;127.53;;;123.03;;
57057;SDS011;55017;52.848;6.748;2023-01-26T15:20:59;128.95;;;124.10;;
57057;SDS011;55017;52.848;6.748;2023-01-26T15:23:33;127.03;;;122.03;;
57057;SDS011;55017;52.848;6.748;2023-01-26T15:26:04;134.75;;;129.75;;
57057;SDS011;55017;52.848;6.748;2023-01-26T15:28:30;131.65;;;126.43;;
57057;SDS011;55017;52.848;6.748;2023-01-26T15:30:57;130.15;;;125.28;;
57057;SDS011;55017;52.848;6.748;2023-01-26T15:36:24;128.90;;;123.45;;
57057;SDS011;55017;52.848;6.748;2023-01-26T15:39:11;133.07;;;128.05;;
57057;SDS011;55017;52.848;6.748;2023-01-26T15:41:37;130.27;;;125.13;;
57057;SDS011;55017;52.848;6.748;2023-01-26T15:44:04;135.35;;;130.18;;
57057;SDS011;55017;52.848;6.748;2023-01-26T15:46:30;132.65;;;127.80;;